createdAt,value
2019-02-04T00:00:16.340Z,1017.20
2019-02-04T00:01:16.345Z,1017.21
2019-02-04T00:02:16.356Z,1017.25
2019-02-04T00:03:16.364Z,1017.23
2019-02-04T00:04:16.370Z,1017.22
2019-02-04T00:05:16.383Z,1017.24
2019-02-04T00:06:16.393Z,1017.24
2019-02-04T00:07:16.400Z,1017.20
2019-02-04T00:08:16.483Z,1017.25
2019-02-04T00:09:16.418Z,1017.18
2019-02-04T00:10:16.431Z,1017.25
2019-02-04T00:11:16.436Z,1017.24
2019-02-04T00:12:16.446Z,1017.27
2019-02-04T00:13:16.457Z,1017.26
2019-02-04T00:14:16.463Z,1017.23
2019-02-04T00:15:16.473Z,1017.21
2019-02-04T00:16:16.481Z,1017.22
2019-02-04T00:17:16.491Z,1017.21
2019-02-04T00:18:16.500Z,1017.27
2019-02-04T00:19:16.509Z,1017.29
2019-02-04T00:20:16.520Z,1017.30
2019-02-04T00:21:16.525Z,1017.33
2019-02-04T00:22:16.536Z,1017.35
2019-02-04T00:23:16.543Z,1017.33
2019-02-04T00:24:16.555Z,1017.32
2019-02-04T00:25:16.561Z,1017.34
2019-02-04T00:26:16.571Z,1017.37
2019-02-04T00:27:16.581Z,1017.33
2019-02-04T00:28:16.588Z,1017.33
2019-02-04T00:29:16.597Z,1017.34
2019-02-04T00:30:16.606Z,1017.38
2019-02-04T00:31:16.615Z,1017.34
2019-02-04T00:32:16.627Z,1017.38
2019-02-04T00:33:16.634Z,1017.39
2019-02-04T00:34:16.644Z,1017.39
2019-02-04T00:35:16.650Z,1017.35
2019-02-04T00:36:16.662Z,1017.39
2019-02-04T00:37:16.671Z,1017.41
2019-02-04T00:38:16.679Z,1017.46
2019-02-04T00:39:16.687Z,1017.44
2019-02-04T00:40:16.697Z,1017.51
2019-02-04T00:41:16.706Z,1017.49
2019-02-04T00:42:16.718Z,1017.50
2019-02-04T00:43:16.724Z,1017.54
2019-02-04T00:44:16.735Z,1017.51
2019-02-04T00:45:16.741Z,1017.56
2019-02-04T00:46:16.751Z,1017.58
2019-02-04T00:47:16.759Z,1017.58
2019-02-04T00:48:16.768Z,1017.56
2019-02-04T00:49:16.775Z,1017.59
2019-02-04T00:50:16.785Z,1017.68
2019-02-04T00:51:16.794Z,1017.67
2019-02-04T00:52:16.803Z,1017.67
2019-02-04T00:53:16.812Z,1017.67
2019-02-04T00:54:16.822Z,1017.75
2019-02-04T00:55:16.829Z,1017.72
2019-02-04T00:56:16.840Z,1017.76
2019-02-04T00:57:16.848Z,1017.73
2019-02-04T00:58:16.855Z,1017.80
2019-02-04T00:59:16.866Z,1017.84
2019-02-04T01:00:16.874Z,1017.83
2019-02-04T01:01:16.883Z,1017.84
2019-02-04T01:02:16.894Z,1017.87
2019-02-04T01:03:16.901Z,1017.86
2019-02-04T01:04:16.911Z,1017.86
2019-02-04T01:05:16.918Z,1017.92
2019-02-04T01:06:16.929Z,1017.90
2019-02-04T01:07:16.937Z,1017.91
2019-02-04T01:08:16.945Z,1017.89
2019-02-04T01:09:16.956Z,1017.95
2019-02-04T01:10:16.966Z,1017.97
2019-02-04T01:11:16.971Z,1018.03
2019-02-04T01:12:16.980Z,1018.00
2019-02-04T01:13:16.992Z,1017.99
2019-02-04T01:14:16.998Z,1018.01
2019-02-04T01:15:17.007Z,1018.00
2019-02-04T01:16:17.015Z,1018.00
2019-02-04T01:17:17.023Z,1017.98
2019-02-04T01:18:17.033Z,1017.97
2019-02-04T01:19:17.041Z,1018.00
2019-02-04T01:20:17.050Z,1017.99
2019-02-04T01:21:17.059Z,1018.01
2019-02-04T01:22:17.068Z,1018.05
2019-02-04T01:23:17.074Z,1018.04
2019-02-04T01:24:17.087Z,1018.02
2019-02-04T01:25:17.096Z,1018.04
2019-02-04T01:26:17.105Z,1018.07
2019-02-04T01:27:17.114Z,1018.13
2019-02-04T01:28:17.122Z,1018.13
2019-02-04T01:29:17.131Z,1018.14
2019-02-04T01:30:17.140Z,1018.17
2019-02-04T01:31:17.150Z,1018.17
2019-02-04T01:32:17.155Z,1018.20
2019-02-04T01:33:17.164Z,1018.20
2019-02-04T01:34:17.173Z,1018.18
2019-02-04T01:35:17.183Z,1018.22
2019-02-04T01:36:17.190Z,1018.26
2019-02-04T01:37:17.200Z,1018.26
2019-02-04T01:38:17.208Z,1018.28
2019-02-04T01:39:17.220Z,1018.30
2019-02-04T01:40:17.225Z,1018.33
2019-02-04T01:41:17.235Z,1018.33
2019-02-04T01:42:17.242Z,1018.35
2019-02-04T01:43:17.254Z,1018.38
2019-02-04T01:44:17.261Z,1018.40
2019-02-04T01:45:17.272Z,1018.42
2019-02-04T01:46:17.280Z,1018.45
2019-02-04T01:47:17.288Z,1018.45
2019-02-04T01:48:17.301Z,1018.49
2019-02-04T01:49:17.308Z,1018.53
2019-02-04T01:50:17.315Z,1018.51
2019-02-04T01:51:17.323Z,1018.50
2019-02-04T01:52:17.346Z,1018.51
2019-02-04T01:53:17.351Z,1018.50
2019-02-04T01:54:17.350Z,1018.57
2019-02-04T01:55:17.358Z,1018.54
2019-02-04T01:56:17.365Z,1018.55
2019-02-04T01:57:17.375Z,1018.58
2019-02-04T01:58:17.385Z,1018.58
2019-02-04T01:59:17.394Z,1018.56
2019-02-04T02:00:17.405Z,1018.59
2019-02-04T02:01:17.410Z,1018.57
2019-02-04T02:02:17.511Z,1018.57
2019-02-04T02:03:17.426Z,1018.59
2019-02-04T02:04:17.437Z,1018.64
2019-02-04T02:05:17.446Z,1018.66
2019-02-04T02:06:17.455Z,1018.65
2019-02-04T02:07:17.464Z,1018.73
2019-02-04T02:08:17.470Z,1018.70
2019-02-04T02:09:17.481Z,1018.65
2019-02-04T02:10:17.491Z,1018.69
2019-02-04T02:11:17.498Z,1018.65
2019-02-04T02:12:17.506Z,1018.68
2019-02-04T02:13:17.514Z,1018.67
2019-02-04T02:14:17.525Z,1018.70
2019-02-04T02:15:17.532Z,1018.69
2019-02-04T02:16:17.541Z,1018.69
2019-02-04T02:17:26.052Z,1018.71
2019-02-04T02:18:17.559Z,1018.71
2019-02-04T02:19:17.566Z,1018.72
2019-02-04T02:20:17.576Z,1018.76
2019-02-04T02:21:17.585Z,1018.74
2019-02-04T02:22:17.591Z,1018.78
2019-02-04T02:23:17.606Z,1018.79
2019-02-04T02:24:17.610Z,1018.80
2019-02-04T02:25:17.619Z,1018.78
2019-02-04T02:26:17.630Z,1018.82
2019-02-04T02:27:17.641Z,1018.79
2019-02-04T02:28:17.649Z,1018.82
2019-02-04T02:29:17.655Z,1018.82
2019-02-04T02:30:17.669Z,1018.85
2019-02-04T02:31:17.674Z,1018.85
2019-02-04T02:32:17.684Z,1018.85
2019-02-04T02:33:17.693Z,1018.86
2019-02-04T02:34:17.789Z,1018.87
2019-02-04T02:35:17.738Z,1018.88
2019-02-04T02:36:17.771Z,1018.90
2019-02-04T02:37:17.770Z,1018.90
2019-02-04T02:38:17.800Z,1018.95
2019-02-04T02:39:17.785Z,1018.96
2019-02-04T02:40:17.838Z,1018.95
2019-02-04T02:41:17.847Z,1018.97
2019-02-04T02:42:17.836Z,1019.00
2019-02-04T02:43:17.836Z,1018.99
2019-02-04T02:44:17.843Z,1018.99
2019-02-04T02:45:17.852Z,1019.03
2019-02-04T02:46:17.840Z,1018.99
2019-02-04T02:47:17.839Z,1019.04
2019-02-04T02:48:17.843Z,1019.04
2019-02-04T02:49:17.837Z,1019.10
2019-02-04T02:50:17.839Z,1019.12
2019-02-04T02:51:17.848Z,1019.11
2019-02-04T02:52:17.860Z,1019.11
2019-02-04T02:53:17.864Z,1019.14
2019-02-04T02:54:17.877Z,1019.15
2019-02-04T02:55:17.882Z,1019.18
2019-02-04T02:56:17.892Z,1019.19
2019-02-04T02:57:17.900Z,1019.24
2019-02-04T02:58:17.910Z,1019.24
2019-02-04T02:59:17.915Z,1019.24
2019-02-04T03:00:17.927Z,1019.28
2019-02-04T03:01:17.995Z,1019.27
2019-02-04T03:02:17.944Z,1019.31
2019-02-04T03:03:17.954Z,1019.28
2019-02-04T03:04:17.958Z,1019.32
2019-02-04T03:05:17.971Z,1019.33
2019-02-04T03:06:17.987Z,1019.35
2019-02-04T03:07:17.986Z,1019.37
2019-02-04T03:08:17.997Z,1019.41
2019-02-04T03:09:18.006Z,1019.41
2019-02-04T03:10:18.015Z,1019.40
2019-02-04T03:11:18.019Z,1019.42
2019-02-04T03:12:18.032Z,1019.42
2019-02-04T03:13:18.042Z,1019.45
2019-02-04T03:14:18.051Z,1019.52
2019-02-04T03:15:18.055Z,1019.52
2019-02-04T03:16:18.149Z,1019.56
2019-02-04T03:17:18.074Z,1019.60
2019-02-04T03:18:18.084Z,1019.58
2019-02-04T03:19:18.090Z,1019.60
2019-02-04T03:20:18.111Z,1019.58
2019-02-04T03:21:18.113Z,1019.56
2019-02-04T03:22:18.118Z,1019.61
2019-02-04T03:23:18.126Z,1019.64
2019-02-04T03:24:18.134Z,1019.67
2019-02-04T03:25:18.145Z,1019.67
2019-02-04T03:26:18.162Z,1019.65
2019-02-04T03:27:18.166Z,1019.66
2019-02-04T03:28:18.170Z,1019.69
2019-02-04T03:29:18.180Z,1019.72
2019-02-04T03:30:18.193Z,1019.73
2019-02-04T03:31:18.196Z,1019.74
2019-02-04T03:32:18.218Z,1019.75
2019-02-04T03:33:18.222Z,1019.78
2019-02-04T03:34:18.228Z,1019.79
2019-02-04T03:35:18.233Z,1019.74
2019-02-04T03:36:18.241Z,1019.78
2019-02-04T03:37:18.249Z,1019.79
2019-02-04T03:38:18.260Z,1019.84
2019-02-04T03:39:18.265Z,1019.84
2019-02-04T03:40:18.275Z,1019.84
2019-02-04T03:41:18.283Z,1019.86
2019-02-04T03:42:18.289Z,1019.88
2019-02-04T03:43:18.300Z,1019.91
2019-02-04T03:44:18.321Z,1019.92
2019-02-04T03:45:18.317Z,1019.91
2019-02-04T03:46:18.327Z,1019.94
2019-02-04T03:47:18.336Z,1019.96
2019-02-04T03:48:18.345Z,1019.97
2019-02-04T03:49:18.354Z,1019.97
2019-02-04T03:50:18.363Z,1020.00
2019-02-04T03:51:18.367Z,1020.05
2019-02-04T03:52:18.378Z,1019.99
2019-02-04T03:53:18.639Z,1020.00
2019-02-04T03:54:18.396Z,1020.03
2019-02-04T03:55:18.403Z,1020.06
2019-02-04T03:56:18.412Z,1020.06
2019-02-04T03:57:18.420Z,1020.07
2019-02-04T03:58:18.430Z,1020.06
2019-02-04T03:59:18.438Z,1020.03
2019-02-04T04:00:18.447Z,1020.04
2019-02-04T04:01:18.455Z,1020.06
2019-02-04T04:02:18.467Z,1020.10
2019-02-04T04:03:18.472Z,1020.06
2019-02-04T04:04:18.484Z,1020.10
2019-02-04T04:05:18.505Z,1020.07
2019-02-04T04:06:18.501Z,1020.09
2019-02-04T04:07:18.509Z,1020.10
2019-02-04T04:08:18.519Z,1020.14
2019-02-04T04:09:18.526Z,1020.20
2019-02-04T04:10:18.534Z,1020.20
2019-02-04T04:11:18.543Z,1020.22
2019-02-04T04:12:18.554Z,1020.18
2019-02-04T04:13:18.559Z,1020.22
2019-02-04T04:14:18.568Z,1020.25
2019-02-04T04:15:18.577Z,1020.35
2019-02-04T04:16:18.589Z,1020.31
2019-02-04T04:17:18.595Z,1020.30
2019-02-04T04:18:18.604Z,1020.29
2019-02-04T04:19:18.612Z,1020.29
2019-02-04T04:20:18.619Z,1020.32
2019-02-04T04:21:18.632Z,1020.31
2019-02-04T04:22:18.640Z,1020.38
2019-02-04T04:23:18.645Z,1020.32
2019-02-04T04:24:18.657Z,1020.30
2019-02-04T04:25:18.676Z,1020.37
2019-02-04T04:26:18.676Z,1020.40
2019-02-04T04:27:18.684Z,1020.47
2019-02-04T04:28:18.696Z,1020.46
2019-02-04T04:29:18.699Z,1020.46
2019-02-04T04:30:18.710Z,1020.43
2019-02-04T04:31:18.716Z,1020.46
2019-02-04T04:32:18.727Z,1020.48
2019-02-04T04:33:18.736Z,1020.52
2019-02-04T04:34:18.745Z,1020.51
2019-02-04T04:35:18.751Z,1020.54
2019-02-04T04:36:18.760Z,1020.57
2019-02-04T04:37:18.772Z,1020.53
2019-02-04T04:38:18.779Z,1020.55
2019-02-04T04:39:18.787Z,1020.56
2019-02-04T04:40:18.795Z,1020.52
2019-02-04T04:41:18.809Z,1020.56
2019-02-04T04:42:18.815Z,1020.57
2019-02-04T04:43:18.823Z,1020.59
2019-02-04T04:44:18.832Z,1020.60
2019-02-04T04:45:18.836Z,1020.63
2019-02-04T04:46:18.847Z,1020.64
2019-02-04T04:47:18.924Z,1020.64
2019-02-04T04:48:26.215Z,1020.67
2019-02-04T04:49:18.874Z,1020.63
2019-02-04T04:50:18.882Z,1020.65
2019-02-04T04:51:18.890Z,1020.66
2019-02-04T04:52:18.900Z,1020.66
2019-02-04T04:53:18.911Z,1020.72
2019-02-04T04:54:18.918Z,1020.67
2019-02-04T04:55:18.924Z,1020.67
2019-02-04T04:56:18.935Z,1020.70
2019-02-04T04:57:18.951Z,1020.67
2019-02-04T04:58:18.952Z,1020.70
2019-02-04T04:59:18.960Z,1020.69
2019-02-04T05:00:18.967Z,1020.71
2019-02-04T05:01:18.976Z,1020.70
2019-02-04T05:02:18.986Z,1020.71
2019-02-04T05:03:18.994Z,1020.70
2019-02-04T05:04:19.003Z,1020.75
2019-02-04T05:05:19.015Z,1020.69
2019-02-04T05:06:19.035Z,1020.74
2019-02-04T05:07:19.030Z,1020.75
2019-02-04T05:08:19.039Z,1020.72
2019-02-04T05:09:19.047Z,1020.72
2019-02-04T05:10:19.056Z,1020.74
2019-02-04T05:11:19.063Z,1020.70
2019-02-04T05:12:19.074Z,1020.75
2019-02-04T05:13:19.084Z,1020.75
2019-02-04T05:14:19.090Z,1020.75
2019-02-04T05:15:19.103Z,1020.77
2019-02-04T05:16:19.109Z,1020.76
2019-02-04T05:17:19.116Z,1020.79
2019-02-04T05:18:19.125Z,1020.74
2019-02-04T05:19:19.132Z,1020.77
2019-02-04T05:20:19.142Z,1020.79
2019-02-04T05:21:19.156Z,1020.80
2019-02-04T05:22:19.165Z,1020.82
2019-02-04T05:23:19.168Z,1020.84
2019-02-04T05:24:19.179Z,1020.86
2019-02-04T05:25:19.185Z,1020.87
2019-02-04T05:26:19.195Z,1020.89
2019-02-04T05:27:19.204Z,1020.87
2019-02-04T05:28:19.213Z,1020.88
2019-02-04T05:29:19.221Z,1020.90
2019-02-04T05:30:19.230Z,1020.90
2019-02-04T05:31:19.239Z,1020.92
2019-02-04T05:32:19.246Z,1020.96
2019-02-04T05:33:19.259Z,1020.93
2019-02-04T05:34:19.264Z,1020.91
2019-02-04T05:35:19.273Z,1020.89
2019-02-04T05:36:19.285Z,1020.96
2019-02-04T05:37:19.288Z,1020.98
2019-02-04T05:38:19.296Z,1021.00
2019-02-04T05:39:19.307Z,1021.01
2019-02-04T05:40:19.314Z,1020.97
2019-02-04T05:41:19.324Z,1021.03
2019-02-04T05:42:19.335Z,1021.05
2019-02-04T05:43:19.344Z,1021.03
2019-02-04T05:44:19.352Z,1021.08
2019-02-04T05:45:19.361Z,1021.07
2019-02-04T05:46:19.370Z,1021.09
2019-02-04T05:47:19.378Z,1021.08
2019-02-04T05:48:19.385Z,1021.10
2019-02-04T05:49:19.394Z,1021.09
2019-02-04T05:50:19.405Z,1021.08
2019-02-04T05:51:19.409Z,1021.08
2019-02-04T05:52:19.420Z,1021.08
2019-02-04T05:53:19.429Z,1021.09
2019-02-04T05:54:19.445Z,1021.07
2019-02-04T05:55:19.459Z,1021.13
2019-02-04T05:56:19.491Z,1021.15
2019-02-04T05:57:19.527Z,1021.16
2019-02-04T05:58:19.528Z,1021.17
2019-02-04T05:59:19.534Z,1021.13
2019-02-04T06:00:19.523Z,1021.16
2019-02-04T06:01:19.524Z,1021.19
2019-02-04T06:02:19.537Z,1021.16
2019-02-04T06:03:19.586Z,1021.19
2019-02-04T06:04:19.584Z,1021.24
2019-02-04T06:05:19.586Z,1021.25
2019-02-04T06:06:19.603Z,1021.26
2019-02-04T06:07:19.585Z,1021.26
2019-02-04T06:08:19.580Z,1021.29
2019-02-04T06:09:19.585Z,1021.25
2019-02-04T06:10:19.594Z,1021.23
2019-02-04T06:11:19.583Z,1021.27
2019-02-04T06:12:19.592Z,1021.26
2019-02-04T06:13:19.603Z,1021.28
2019-02-04T06:14:19.608Z,1021.36
2019-02-04T06:15:19.618Z,1021.33
2019-02-04T06:16:19.625Z,1021.37
2019-02-04T06:17:19.635Z,1021.41
2019-02-04T06:18:19.644Z,1021.39
2019-02-04T06:19:19.650Z,1021.41
2019-02-04T06:20:19.671Z,1021.43
2019-02-04T06:21:19.670Z,1021.43
2019-02-04T06:22:19.676Z,1021.46
2019-02-04T06:23:19.686Z,1021.42
2019-02-04T06:24:19.695Z,1021.46
2019-02-04T06:25:19.706Z,1021.45
2019-02-04T06:26:19.712Z,1021.45
2019-02-04T06:27:19.718Z,1021.43
2019-02-04T06:28:19.735Z,1021.46
2019-02-04T06:29:19.742Z,1021.51
2019-02-04T06:30:19.750Z,1021.49
2019-02-04T06:31:19.754Z,1021.52
2019-02-04T06:32:19.766Z,1021.55
2019-02-04T06:33:19.778Z,1021.53
2019-02-04T06:34:19.781Z,1021.55
2019-02-04T06:35:19.791Z,1021.63
2019-02-04T06:36:19.798Z,1021.60
2019-02-04T06:37:19.808Z,1021.60
2019-02-04T06:38:19.817Z,1021.63
2019-02-04T06:39:19.827Z,1021.61
2019-02-04T06:40:19.833Z,1021.60
2019-02-04T06:41:19.841Z,1021.60
2019-02-04T06:42:19.850Z,1021.62
2019-02-04T06:43:19.857Z,1021.65
2019-02-04T06:44:19.866Z,1021.61
2019-02-04T06:45:19.875Z,1021.67
2019-02-04T06:46:19.883Z,1021.64
2019-02-04T06:47:19.891Z,1021.67
2019-02-04T06:48:19.901Z,1021.71
2019-02-04T06:49:19.909Z,1021.71
2019-02-04T06:50:19.921Z,1021.74
2019-02-04T06:51:19.925Z,1021.73
2019-02-04T06:52:19.933Z,1021.81
2019-02-04T06:53:19.951Z,1021.76
2019-02-04T06:54:19.956Z,1021.78
2019-02-04T06:55:19.958Z,1021.79
2019-02-04T06:56:19.973Z,1021.81
2019-02-04T06:57:19.980Z,1021.77
2019-02-04T06:58:19.986Z,1021.80
2019-02-04T06:59:20.039Z,1021.80
2019-02-04T07:00:20.005Z,1021.85
2019-02-04T07:01:20.011Z,1021.84
2019-02-04T07:02:20.020Z,1021.83
2019-02-04T07:03:20.028Z,1021.85
2019-02-04T07:04:20.039Z,1021.85
2019-02-04T07:05:20.046Z,1021.84
2019-02-04T07:06:20.055Z,1021.86
2019-02-04T07:07:20.063Z,1021.88
2019-02-04T07:08:20.072Z,1021.90
2019-02-04T07:09:20.080Z,1021.96
2019-02-04T07:10:20.089Z,1021.93
2019-02-04T07:11:20.098Z,1021.94
2019-02-04T07:12:20.108Z,1021.96
2019-02-04T07:13:20.115Z,1021.97
2019-02-04T07:14:20.125Z,1021.98
2019-02-04T07:15:20.132Z,1022.01
2019-02-04T07:16:20.142Z,1022.00
2019-02-04T07:17:20.148Z,1021.98
2019-02-04T07:18:20.158Z,1021.96
2019-02-04T07:19:24.250Z,1022.02
2019-02-04T07:20:20.177Z,1022.03
2019-02-04T07:21:20.974Z,1022.03
2019-02-04T07:22:20.195Z,1021.99
2019-02-04T07:23:20.201Z,1022.05
2019-02-04T07:24:20.210Z,1022.07
2019-02-04T07:25:20.226Z,1022.02
2019-02-04T07:26:20.229Z,1022.07
2019-02-04T07:27:22.393Z,1022.08
2019-02-04T07:28:20.248Z,1022.09
2019-02-04T07:29:20.292Z,1022.12
2019-02-04T07:30:20.264Z,1022.13
2019-02-04T07:31:20.271Z,1022.10
2019-02-04T07:32:20.281Z,1022.09
2019-02-04T07:33:20.291Z,1022.17
2019-02-04T07:34:20.300Z,1022.12
2019-02-04T07:35:20.307Z,1022.20
2019-02-04T07:36:20.316Z,1022.17
2019-02-04T07:37:20.325Z,1022.18
2019-02-04T07:38:20.337Z,1022.20
2019-02-04T07:39:20.341Z,1022.20
2019-02-04T07:40:20.356Z,1022.17
2019-02-04T07:41:20.363Z,1022.17
2019-02-04T07:42:20.370Z,1022.20
2019-02-04T07:43:20.377Z,1022.19
2019-02-04T07:44:20.388Z,1022.19
2019-02-04T07:45:20.398Z,1022.19
2019-02-04T07:46:20.407Z,1022.18
2019-02-04T07:47:20.413Z,1022.17
2019-02-04T07:48:20.425Z,1022.21
2019-02-04T07:49:20.432Z,1022.19
2019-02-04T07:50:20.532Z,1022.21
2019-02-04T07:51:20.450Z,1022.20
2019-02-04T07:52:20.459Z,1022.22
2019-02-04T07:53:20.475Z,1022.22
2019-02-04T07:54:20.477Z,1022.23
2019-02-04T07:55:20.485Z,1022.20
2019-02-04T07:56:20.494Z,1022.25
2019-02-04T07:57:20.505Z,1022.20
2019-02-04T07:58:20.513Z,1022.23
2019-02-04T07:59:20.524Z,1022.21
2019-02-04T08:00:20.530Z,1022.20
2019-02-04T08:01:20.540Z,1022.21
2019-02-04T08:02:20.548Z,1022.25
2019-02-04T08:03:20.558Z,1022.25
2019-02-04T08:04:20.567Z,1022.22
2019-02-04T08:05:20.575Z,1022.22
2019-02-04T08:06:20.586Z,1022.27
2019-02-04T08:07:20.596Z,1022.26
2019-02-04T08:08:20.600Z,1022.23
2019-02-04T08:09:20.612Z,1022.23
2019-02-04T08:10:20.621Z,1022.29
2019-02-04T08:11:20.629Z,1022.24
2019-02-04T08:12:20.636Z,1022.24
2019-02-04T08:13:20.648Z,1022.25
2019-02-04T08:14:20.657Z,1022.29
2019-02-04T08:15:20.668Z,1022.29
2019-02-04T08:16:20.676Z,1022.29
2019-02-04T08:17:20.683Z,1022.29
2019-02-04T08:18:20.694Z,1022.34
2019-02-04T08:19:20.702Z,1022.30
2019-02-04T08:20:22.572Z,1022.33
2019-02-04T08:21:20.721Z,1022.35
2019-02-04T08:22:20.731Z,1022.34
2019-02-04T08:23:20.741Z,1022.37
2019-02-04T08:24:20.749Z,1022.38
2019-02-04T08:25:20.831Z,1022.34
2019-02-04T08:26:20.765Z,1022.37
2019-02-04T08:27:20.775Z,1022.34
2019-02-04T08:28:20.787Z,1022.34
2019-02-04T08:29:20.795Z,1022.37
2019-02-04T08:30:20.804Z,1022.37
2019-02-04T08:31:20.814Z,1022.43
2019-02-04T08:32:20.823Z,1022.45
2019-02-04T08:33:20.836Z,1022.41
2019-02-04T08:34:20.842Z,1022.40
2019-02-04T08:35:20.851Z,1022.43
2019-02-04T08:36:20.858Z,1022.45
2019-02-04T08:37:20.866Z,1022.43
2019-02-04T08:38:20.879Z,1022.41
2019-02-04T08:39:20.892Z,1022.45
2019-02-04T08:40:20.901Z,1022.42
2019-02-04T08:41:20.908Z,1022.44
2019-02-04T08:42:20.917Z,1022.43
2019-02-04T08:43:20.930Z,1022.41
2019-02-04T08:44:20.934Z,1022.44
2019-02-04T08:45:20.944Z,1022.41
2019-02-04T08:46:20.954Z,1022.45
2019-02-04T08:47:22.656Z,1022.41
2019-02-04T08:48:20.975Z,1022.43
2019-02-04T08:49:20.984Z,1022.42
2019-02-04T08:50:20.994Z,1022.44
2019-02-04T08:51:21.019Z,1022.44
2019-02-04T08:52:21.011Z,1022.44
2019-02-04T08:53:21.023Z,1022.46
2019-02-04T08:54:21.031Z,1022.43
2019-02-04T08:55:21.041Z,1022.46
2019-02-04T08:56:21.049Z,1022.43
2019-02-04T08:57:21.061Z,1022.44
2019-02-04T08:58:21.080Z,1022.41
2019-02-04T08:59:21.078Z,1022.45
2019-02-04T09:00:21.092Z,1022.42
2019-02-04T09:01:21.100Z,1022.46
2019-02-04T09:02:21.109Z,1022.42
2019-02-04T09:03:21.121Z,1022.44
2019-02-04T09:04:21.130Z,1022.44
2019-02-04T09:05:21.139Z,1022.44
2019-02-04T09:06:21.150Z,1022.44
2019-02-04T09:07:21.159Z,1022.45
2019-02-04T09:08:21.204Z,1022.47
2019-02-04T09:09:21.178Z,1022.49
2019-02-04T09:10:21.192Z,1022.49
2019-02-04T09:11:21.281Z,1022.48
2019-02-04T09:12:21.282Z,1022.50
2019-02-04T09:13:21.290Z,1022.52
2019-02-04T09:14:21.280Z,1022.50
2019-02-04T09:15:21.293Z,1022.53
2019-02-04T09:16:21.293Z,1022.47
2019-02-04T09:17:21.338Z,1022.48
2019-02-04T09:18:21.330Z,1022.51
2019-02-04T09:19:21.337Z,1022.48
2019-02-04T09:20:21.339Z,1022.52
2019-02-04T09:21:21.334Z,1022.54
2019-02-04T09:22:21.329Z,1022.51
2019-02-04T09:23:21.332Z,1022.48
2019-02-04T09:24:21.335Z,1022.52
2019-02-04T09:25:21.346Z,1022.49
2019-02-04T09:26:21.353Z,1022.47
2019-02-04T09:27:21.364Z,1022.45
2019-02-04T09:28:21.371Z,1022.47
2019-02-04T09:29:21.380Z,1022.42
2019-02-04T09:30:21.390Z,1022.40
2019-02-04T09:31:21.400Z,1022.38
2019-02-04T09:32:21.411Z,1022.38
2019-02-04T09:33:21.424Z,1022.41
2019-02-04T09:34:21.436Z,1022.40
2019-02-04T09:35:21.443Z,1022.45
2019-02-04T09:36:21.453Z,1022.49
2019-02-04T09:37:21.463Z,1022.51
2019-02-04T09:38:21.475Z,1022.54
2019-02-04T09:39:21.487Z,1022.50
2019-02-04T09:40:21.497Z,1022.48
2019-02-04T09:41:21.507Z,1022.53
2019-02-04T09:42:21.517Z,1022.52
2019-02-04T09:43:21.527Z,1022.56
2019-02-04T09:44:21.538Z,1022.53
2019-02-04T09:45:24.396Z,1022.54
2019-02-04T09:46:21.558Z,1022.49
2019-02-04T09:47:21.569Z,1022.44
2019-02-04T09:48:21.707Z,1022.42
2019-02-04T09:49:21.590Z,1022.45
2019-02-04T09:50:22.142Z,1022.45
2019-02-04T09:51:21.610Z,1022.47
2019-02-04T09:52:21.622Z,1022.48
2019-02-04T09:53:21.632Z,1022.52
2019-02-04T09:54:21.646Z,1022.47
2019-02-04T09:55:21.653Z,1022.49
2019-02-04T09:56:21.757Z,1022.42
2019-02-04T09:57:21.675Z,1022.46
2019-02-04T09:58:21.688Z,1022.50
2019-02-04T09:59:21.700Z,1022.52
2019-02-04T10:00:21.710Z,1022.50
2019-02-04T10:01:21.722Z,1022.48
2019-02-04T10:02:21.736Z,1022.49
2019-02-04T10:03:21.741Z,1022.48
2019-02-04T10:04:21.753Z,1022.47
2019-02-04T10:05:21.764Z,1022.47
2019-02-04T10:06:21.773Z,1022.47
2019-02-04T10:07:21.784Z,1022.49
2019-02-04T10:08:21.796Z,1022.48
2019-02-04T10:09:21.807Z,1022.47
2019-02-04T10:10:21.818Z,1022.53
2019-02-04T10:11:21.829Z,1022.52
2019-02-04T10:12:21.837Z,1022.49
2019-02-04T10:13:21.848Z,1022.50
2019-02-04T10:14:21.863Z,1022.48
2019-02-04T10:15:21.905Z,1022.50
2019-02-04T10:16:21.985Z,1022.52
2019-02-04T10:17:21.898Z,1022.55
2019-02-04T10:18:21.905Z,1022.53
2019-02-04T10:19:21.924Z,1022.54
2019-02-04T10:20:33.030Z,1022.50
2019-02-04T10:21:21.965Z,1022.49
2019-02-04T10:22:21.975Z,1022.51
2019-02-04T10:23:21.958Z,1022.52
2019-02-04T10:24:21.973Z,1022.49
2019-02-04T10:25:22.014Z,1022.54
2019-02-04T10:26:22.024Z,1022.55
2019-02-04T10:27:22.005Z,1022.53
2019-02-04T10:28:22.034Z,1022.50
2019-02-04T10:29:22.065Z,1022.53
2019-02-04T10:30:22.039Z,1022.52
2019-02-04T10:31:22.093Z,1022.56
2019-02-04T10:32:22.101Z,1022.53
2019-02-04T10:33:22.079Z,1022.50
2019-02-04T10:34:22.123Z,1022.50
2019-02-04T10:35:22.097Z,1022.55
2019-02-04T10:36:22.126Z,1022.51
2019-02-04T10:37:22.146Z,1022.51
2019-02-04T10:38:22.170Z,1022.49
2019-02-04T10:39:22.163Z,1022.55
2019-02-04T10:40:22.201Z,1022.51
2019-02-04T10:41:22.168Z,1022.55
2019-02-04T10:42:22.211Z,1022.51
2019-02-04T10:43:22.187Z,1022.51
2019-02-04T10:44:22.199Z,1022.50
2019-02-04T10:45:22.227Z,1022.49
2019-02-04T10:46:22.378Z,1022.50
2019-02-04T10:47:22.250Z,1022.50
2019-02-04T10:48:22.246Z,1022.44
2019-02-04T10:49:22.288Z,1022.40
2019-02-04T10:50:22.320Z,1022.42
2019-02-04T10:51:22.278Z,1022.39
2019-02-04T10:52:22.298Z,1022.41
2019-02-04T10:53:22.302Z,1022.39
2019-02-04T10:54:22.360Z,1022.39
2019-02-04T10:55:22.333Z,1022.43
2019-02-04T10:56:22.337Z,1022.45
2019-02-04T10:57:22.427Z,1022.41
2019-02-04T10:58:22.361Z,1022.41
2019-02-04T10:59:22.418Z,1022.37
2019-02-04T11:00:22.393Z,1022.42
2019-02-04T11:01:22.426Z,1022.40
2019-02-04T11:02:22.451Z,1022.42
2019-02-04T11:03:22.418Z,1022.41
2019-02-04T11:04:22.512Z,1022.41
2019-02-04T11:05:22.444Z,1022.41
2019-02-04T11:06:22.454Z,1022.41
2019-02-04T11:07:22.470Z,1022.38
2019-02-04T11:08:22.534Z,1022.38
2019-02-04T11:09:22.555Z,1022.37
2019-02-04T11:10:22.645Z,1022.34
2019-02-04T11:11:22.530Z,1022.30
2019-02-04T11:12:22.556Z,1022.33
2019-02-04T11:13:22.538Z,1022.30
2019-02-04T11:14:22.550Z,1022.27
2019-02-04T11:15:25.440Z,1022.24
2019-02-04T11:16:22.609Z,1022.28
2019-02-04T11:17:22.610Z,1022.25
2019-02-04T11:18:22.605Z,1022.22
2019-02-04T11:19:22.738Z,1022.26
2019-02-04T11:20:22.655Z,1022.27
2019-02-04T11:21:22.638Z,1022.27
2019-02-04T11:22:22.648Z,1022.28
2019-02-04T11:23:22.671Z,1022.29
2019-02-04T11:24:22.678Z,1022.26
2019-02-04T11:25:22.712Z,1022.33
2019-02-04T11:26:22.716Z,1022.36
2019-02-04T11:27:22.749Z,1022.31
2019-02-04T11:28:22.740Z,1022.29
2019-02-04T11:29:22.733Z,1022.31
2019-02-04T11:30:22.745Z,1022.32
2019-02-04T11:31:22.764Z,1022.34
2019-02-04T11:32:22.770Z,1022.31
2019-02-04T11:33:22.792Z,1022.34
2019-02-04T11:34:22.812Z,1022.34
2019-02-04T11:35:22.824Z,1022.35
2019-02-04T11:36:22.850Z,1022.31
2019-02-04T11:37:22.877Z,1022.33
2019-02-04T11:38:22.888Z,1022.33
2019-02-04T11:39:22.890Z,1022.35
2019-02-04T11:40:22.899Z,1022.33
2019-02-04T11:41:22.895Z,1022.35
2019-02-04T11:42:22.926Z,1022.37
2019-02-04T11:43:22.907Z,1022.36
2019-02-04T11:44:22.956Z,1022.38
2019-02-04T11:45:22.952Z,1022.35
2019-02-04T11:46:22.984Z,1022.39
2019-02-04T11:47:22.964Z,1022.36
2019-02-04T11:48:22.975Z,1022.37
2019-02-04T11:49:22.983Z,1022.39
2019-02-04T11:50:23.060Z,1022.39
2019-02-04T11:51:23.086Z,1022.34
2019-02-04T11:52:23.083Z,1022.35
2019-02-04T11:53:32.370Z,1022.28
2019-02-04T11:54:23.078Z,1022.22
2019-02-04T11:55:23.088Z,1022.23
2019-02-04T11:56:23.139Z,1022.18
2019-02-04T11:57:23.136Z,1022.18
2019-02-04T11:58:23.137Z,1022.22
2019-02-04T11:59:23.141Z,1022.25
2019-02-04T12:00:23.147Z,1022.22
2019-02-04T12:01:23.135Z,1022.24
2019-02-04T12:02:34.079Z,1022.24
2019-02-04T12:03:23.161Z,1022.24
2019-02-04T12:04:23.171Z,1022.29
2019-02-04T12:05:23.186Z,1022.25